Time;durP1;ratioP1;P1;durP2;ratioP2;P2;SDS_P1;SDS_P2;PMS_P1;PMS_P2;Temp;Humidity;BMP_temperature;BMP_pressure;BME280_temperature;BME280_humidity;BME280_pressure;Samples;Min_cycle;Max_cycle;Signal;HPM_P1;HPM_P2
2023/08/16 06:19:55;;;;;;;6.35;0.90;;;14.60;79.30;;;;;;6240802;22;19923;-75
2023/08/16 06:22:23;;;;;;;5.78;0.82;;;14.60;79.10;;;;;;6214665;23;20076;-76
2023/08/16 06:24:50;;;;;;;4.25;0.90;;;14.60;79.70;;;;;;6214991;23;20004;-76
2023/08/16 06:27:17;;;;;;;2.28;0.90;;;14.60;80.00;;;;;;6213488;23;20391;-76
2023/08/16 06:29:44;;;;;;;4.15;1.00;;;14.60;79.90;;;;;;6214684;23;20004;-75
2023/08/16 06:32:11;;;;;;;4.05;1.05;;;14.60;80.10;;;;;;6214665;23;20338;-76
2023/08/16 06:34:39;;;;;;;2.65;0.60;;;14.60;80.50;;;;;;6214750;23;20084;-75
2023/08/16 06:37:06;;;;;;;2.75;1.27;;;14.60;80.70;;;;;;6214089;23;20006;-76
2023/08/16 06:39:33;;;;;;;2.88;0.90;;;14.60;80.30;;;;;;6210728;23;20079;-79
2023/08/16 06:42:00;;;;;;;4.85;1.00;;;14.60;80.40;;;;;;6212232;23;20035;-79
2023/08/16 06:44:28;;;;;;;5.35;1.10;;;14.60;80.70;;;;;;6211985;23;20009;-78
2023/08/16 06:46:55;;;;;;;2.30;1.00;;;14.60;80.90;;;;;;6212095;23;20011;-77
2023/08/16 06:49:22;;;;;;;1.73;0.75;;;14.50;80.90;;;;;;6211174;23;20036;-78
2023/08/16 06:51:49;;;;;;;1.23;0.75;;;14.50;80.90;;;;;;6211814;23;20004;-77
2023/08/16 06:54:16;;;;;;;2.42;0.80;;;14.50;80.80;;;;;;6212106;23;20008;-77
2023/08/16 06:56:44;;;;;;;2.45;0.80;;;14.60;81.30;;;;;;6212004;23;20055;-78
2023/08/16 06:59:11;;;;;;;1.65;0.82;;;14.50;81.40;;;;;;6211787;23;20455;-76
2023/08/16 07:01:39;;;;;;;2.38;0.80;;;14.50;80.70;;;;;;6184514;23;20004;-78
2023/08/16 07:04:06;;;;;;;1.73;0.70;;;14.40;80.90;;;;;;6210271;23;19997;-78
2023/08/16 07:06:33;;;;;;;5.45;0.90;;;14.50;80.30;;;;;;6184583;23;20005;-77
2023/08/16 07:09:00;;;;;;;3.08;0.73;;;14.40;80.60;;;;;;6211192;23;19997;-81
2023/08/16 07:11:27;;;;;;;1.58;0.47;;;14.40;80.50;;;;;;6211554;23;20020;-78
2023/08/16 07:13:55;;;;;;;0.95;0.60;;;14.40;80.80;;;;;;6211435;23;20024;-80
2023/08/16 07:16:23;;;;;;;5.38;0.90;;;14.40;81.40;;;;;;6210145;23;20087;-78
2023/08/16 07:18:51;;;;;;;1.90;0.82;;;14.40;81.60;;;;;;6185093;23;20009;-82
2023/08/16 07:21:18;;;;;;;2.65;0.80;;;14.30;81.70;;;;;;6228629;23;20027;-77
2023/08/16 07:23:45;;;;;;;1.63;0.80;;;14.30;81.20;;;;;;6241615;23;20023;-77
2023/08/16 07:26:13;;;;;;;1.48;0.55;;;14.30;81.40;;;;;;6238611;23;20029;-78
2023/08/16 07:28:40;;;;;;;2.10;0.70;;;14.30;81.70;;;;;;6241357;23;20010;-74
2023/08/16 07:31:08;;;;;;;2.80;0.90;;;14.30;81.70;;;;;;6241920;23;20000;-73
2023/08/16 07:33:35;;;;;;;1.80;0.73;;;14.20;81.80;;;;;;6242586;23;20043;-83
2023/08/16 07:36:03;;;;;;;1.60;0.70;;;14.20;81.90;;;;;;6241792;23;20043;-78
2023/08/16 07:38:32;;;;;;;2.55;0.98;;;14.20;81.90;;;;;;6214988;23;20012;-77
2023/08/16 07:41:00;;;;;;;4.00;1.05;;;14.20;81.90;;;;;;6216222;23;20008;-77
2023/08/16 07:43:31;;;;;;;1.02;0.85;;;14.30;82.30;;;;;;6240394;23;20099;-78
2023/08/16 07:45:59;;;;;;;1.95;0.85;;;14.20;82.50;;;;;;6216668;23;20008;-78
2023/08/16 07:48:26;;;;;;;3.30;1.05;;;14.20;82.50;;;;;;6191004;23;20016;-78
2023/08/16 07:50:53;;;;;;;2.22;1.00;;;14.20;82.70;;;;;;6241622;23;20000;-79
2023/08/16 07:53:22;;;;;;;5.30;1.40;;;14.20;82.40;;;;;;6190403;23;20038;-78
2023/08/16 07:55:49;;;;;;;2.90;0.93;;;14.20;82.50;;;;;;6241914;23;20310;-77
2023/08/16 07:58:16;;;;;;;2.13;0.80;;;14.20;82.70;;;;;;6214965;23;20347;-77
2023/08/16 08:00:47;;;;;;;1.85;1.00;;;14.10;82.80;;;;;;6241889;23;20055;-77
2023/08/16 08:03:16;;;;;;;3.28;1.00;;;14.10;82.70;;;;;;6240862;23;20004;-77
2023/08/16 08:05:43;;;;;;;1.88;0.88;;;14.10;82.90;;;;;;6241283;23;20000;-78
2023/08/16 08:08:11;;;;;;;2.50;0.90;;;14.10;82.90;;;;;;6215344;23;20331;-78
2023/08/16 08:10:42;;;;;;;2.15;1.00;;;14.10;83.10;;;;;;6215079;23;20060;-80
2023/08/16 08:13:09;;;;;;;1.08;0.80;;;14.00;83.00;;;;;;6241793;23;20067;-79
2023/08/16 08:15:36;;;;;;;3.28;0.80;;;14.00;82.90;;;;;;6214638;23;20423;-78
2023/08/16 08:18:04;;;;;;;3.47;1.15;;;14.10;83.10;;;;;;6241263;23;20004;-79
2023/08/16 08:20:31;;;;;;;3.05;0.85;;;14.00;83.40;;;;;;6241450;23;20019;-76
2023/08/16 08:22:59;;;;;;;3.88;1.15;;;14.00;83.20;;;;;;6190086;23;20000;-78
2023/08/16 08:25:26;;;;;;;3.10;1.05;;;14.10;83.20;;;;;;6239024;23;20565;-78
2023/08/16 08:27:53;;;;;;;2.75;1.00;;;14.00;83.50;;;;;;6214159;23;20032;-80
2023/08/16 08:30:20;;;;;;;2.08;1.13;;;14.00;83.60;;;;;;6241686;23;20075;-80
2023/08/16 08:32:48;;;;;;;2.17;0.82;;;14.00;83.80;;;;;;6241155;23;20022;-78
2023/08/16 08:35:15;;;;;;;2.85;1.17;;;14.00;83.90;;;;;;6241142;23;20004;-78
2023/08/16 08:37:42;;;;;;;1.50;1.00;;;14.00;83.50;;;;;;6240755;23;20018;-76
2023/08/16 08:40:10;;;;;;;2.63;1.10;;;14.00;83.60;;;;;;6241227;23;20006;-78
2023/08/16 08:42:37;;;;;;;2.83;1.00;;;14.00;83.70;;;;;;6241690;23;20075;-80
2023/08/16 08:45:05;;;;;;;2.47;1.33;;;13.90;83.60;;;;;;6190013;23;20000;-76
2023/08/16 08:47:32;;;;;;;2.35;1.10;;;13.90;83.70;;;;;;6214983;23;20082;-75
2023/08/16 08:49:59;;;;;;;2.45;1.15;;;14.00;83.50;;;;;;6189660;23;20368;-77
2023/08/16 08:52:27;;;;;;;2.03;1.10;;;13.90;83.70;;;;;;6240901;23;20020;-76
2023/08/16 08:54:54;;;;;;;7.00;1.35;;;13.90;83.70;;;;;;6214800;23;20330;-77
2023/08/16 08:57:22;;;;;;;4.70;1.00;;;13.90;83.70;;;;;;6189658;23;20007;-81
2023/08/16 08:59:49;;;;;;;3.97;1.20;;;13.90;83.90;;;;;;6240789;23;20067;-77
2023/08/16 09:02:18;;;;;;;5.85;1.48;;;13.90;83.30;;;;;;6240793;23;20303;-76
2023/08/16 09:04:48;;;;;;;4.13;1.85;;;13.80;83.80;;;;;;6187364;23;20008;-76
2023/08/16 09:07:15;;;;;;;3.08;2.00;;;13.80;83.90;;;;;;6215082;23;20080;-76
2023/08/16 09:09:44;;;;;;;4.15;2.30;;;13.80;84.00;;;;;;6214456;23;20103;-76
2023/08/16 09:12:14;;;;;;;6.20;3.00;;;13.70;84.30;;;;;;6189863;23;20019;-76
2023/08/16 09:14:42;;;;;;;7.32;2.83;;;13.70;84.40;;;;;;6213828;23;20000;-76
2023/08/16 09:17:09;;;;;;;4.90;2.42;;;13.70;84.40;;;;;;6240507;23;20059;-78
2023/08/16 09:19:46;;;;;;;6.55;3.13;;;13.70;84.50;;;;;;6240651;23;20004;-77
2023/08/16 09:22:14;;;;;;;4.97;2.67;;;13.70;84.40;;;;;;6241527;23;20075;-76
2023/08/16 09:24:43;;;;;;;3.42;2.28;;;13.70;84.40;;;;;;6240729;23;20517;-78
2023/08/16 09:27:10;;;;;;;3.47;2.28;;;13.70;84.30;;;;;;6187800;23;20019;-77
2023/08/16 09:29:41;;;;;;;6.57;2.22;;;13.60;84.70;;;;;;6214407;23;20004;-76
2023/08/16 09:32:09;;;;;;;5.10;1.70;;;13.60;84.60;;;;;;6188865;23;20001;-76
2023/08/16 09:34:36;;;;;;;3.33;1.50;;;13.60;84.60;;;;;;6239916;23;20012;-80
2023/08/16 09:37:03;;;;;;;2.22;1.40;;;13.60;84.50;;;;;;6216050;23;20083;-77
2023/08/16 09:39:31;;;;;;;4.78;1.83;;;13.70;84.90;;;;;;6215724;23;20016;-80
2023/08/16 09:41:59;;;;;;;3.15;1.65;;;13.60;84.70;;;;;;6243041;23;20008;-76
2023/08/16 09:44:29;;;;;;;3.20;1.50;;;13.60;84.60;;;;;;6241667;23;20007;-77
2023/08/16 09:47:00;;;;;;;6.15;1.63;;;13.60;85.00;;;;;;6216506;23;20008;-80
2023/08/16 09:49:27;;;;;;;2.67;1.30;;;13.60;84.80;;;;;;6216216;23;20004;-76
2023/08/16 09:51:54;;;;;;;3.25;1.60;;;13.60;84.80;;;;;;6242816;23;20059;-80
2023/08/16 09:54:23;;;;;;;5.20;1.80;;;13.60;84.70;;;;;;6190863;23;20015;-80
2023/08/16 09:56:50;;;;;;;1.83;1.60;;;13.60;85.00;;;;;;6216519;23;20574;-80
2023/08/16 09:59:18;;;;;;;3.30;1.92;;;13.60;84.80;;;;;;6243900;23;20015;-79
2023/08/16 10:01:45;;;;;;;5.97;2.20;;;13.50;84.90;;;;;;6215420;23;20009;-79
2023/08/16 10:04:12;;;;;;;3.50;1.70;;;13.50;85.20;;;;;;6216673;23;20015;-77
2023/08/16 10:06:40;;;;;;;3.53;1.58;;;13.50;85.20;;;;;;6242367;23;20501;-78
2023/08/16 10:09:09;;;;;;;3.60;2.17;;;13.50;85.00;;;;;;6191669;23;20010;-85
2023/08/16 10:11:38;;;;;;;7.10;2.08;;;13.50;85.10;;;;;;6192101;23;20004;-77
2023/08/16 10:14:07;;;;;;;4.45;2.45;;;13.50;85.20;;;;;;6240669;23;20012;-78
2023/08/16 10:16:36;;;;;;;3.97;2.20;;;13.40;85.10;;;;;;6215321;23;20019;-79
2023/08/16 10:19:04;;;;;;;6.22;2.33;;;13.40;84.90;;;;;;6242047;23;20086;-78
2023/08/16 10:21:36;;;;;;;3.92;2.35;;;13.30;85.20;;;;;;6185178;23;20336;-83
2023/08/16 10:24:03;;;;;;;3.60;2.20;;;13.30;85.50;;;;;;6186347;23;20023;-80
2023/08/16 10:26:30;;;;;;;4.13;2.40;;;13.30;85.50;;;;;;6182844;23;20323;-76
2023/08/16 10:29:01;;;;;;;5.40;2.60;;;13.30;85.60;;;;;;6184959;23;20007;-78
2023/08/16 10:31:43;;;;;;;5.70;2.80;;;13.30;85.70;;;;;;6211651;23;20000;-77
2023/08/16 10:34:10;;;;;;;5.63;2.45;;;13.20;85.90;;;;;;6185892;23;20043;-78
2023/08/16 10:36:37;;;;;;;2.40;1.75;;;13.20;86.00;;;;;;6185533;23;20000;-80
2023/08/16 10:39:08;;;;;;;3.38;1.90;;;13.20;86.10;;;;;;6210055;23;20120;-78
2023/08/16 10:41:42;;;;;;;4.40;1.67;;;13.20;86.20;;;;;;6185712;23;20400;-78
2023/08/16 10:44:11;;;;;;;3.38;1.70;;;13.20;86.20;;;;;;6209521;23;20001;-77
2023/08/16 10:46:38;;;;;;;3.17;1.75;;;13.20;86.20;;;;;;6210276;23;20009;-81
2023/08/16 10:49:06;;;;;;;1.88;1.60;;;13.20;86.50;;;;;;6211919;23;20000;-78
2023/08/16 10:52:03;;;;;;;3.22;1.73;;;13.20;86.60;;;;;;6210866;23;20074;-78
2023/08/16 10:54:36;;;;;;;3.15;1.52;;;13.20;86.60;;;;;;6173223;23;20021;-79
2023/08/16 10:57:05;;;;;;;3.25;1.40;;;13.10;86.80;;;;;;6183552;23;20009;-78
2023/08/16 10:59:42;;;;;;;2.83;1.52;;;13.20;86.80;;;;;;6210337;23;20348;-79
2023/08/16 11:02:17;;;;;;;3.10;1.48;;;13.20;87.00;;;;;;6211388;23;20004;-74
2023/08/16 11:04:46;;;;;;;3.40;1.55;;;13.20;86.90;;;;;;6212086;23;20000;-77
2023/08/16 11:07:14;;;;;;;5.10;1.33;;;13.20;86.80;;;;;;6211230;23;20076;-78
2023/08/16 11:09:42;;;;;;;5.00;1.65;;;13.20;87.10;;;;;;6211574;23;20000;-80
2023/08/16 11:12:09;;;;;;;1.48;1.23;;;13.20;87.00;;;;;;6185568;23;20372;-77
2023/08/16 11:14:37;;;;;;;2.17;1.50;;;13.10;87.10;;;;;;6210826;23;20409;-78
2023/08/16 11:17:05;;;;;;;3.95;1.50;;;13.10;87.00;;;;;;6211428;23;19996;-78
2023/08/16 11:19:33;;;;;;;3.28;1.63;;;13.10;87.00;;;;;;6211197;23;20009;-76
2023/08/16 11:22:05;;;;;;;3.15;1.75;;;13.10;86.90;;;;;;6235609;23;20040;-76
2023/08/16 11:24:33;;;;;;;2.22;1.55;;;13.10;87.00;;;;;;6215136;23;20054;-76
2023/08/16 11:27:02;;;;;;;2.47;1.33;;;13.10;87.00;;;;;;6212337;23;20004;-80
2023/08/16 11:29:29;;;;;;;2.97;1.70;;;13.10;87.10;;;;;;6241236;23;20015;-77
2023/08/16 11:32:00;;;;;;;4.75;1.70;;;13.10;87.10;;;;;;6241859;23;19999;-77
2023/08/16 11:34:31;;;;;;;2.40;1.60;;;13.10;87.00;;;;;;6241723;23;20019;-80
2023/08/16 11:36:58;;;;;;;1.83;1.65;;;13.10;87.10;;;;;;6165268;23;20012;-79
2023/08/16 11:39:27;;;;;;;4.40;1.85;;;13.10;86.90;;;;;;6214227;23;20027;-77
2023/08/16 11:41:54;;;;;;;4.22;1.88;;;13.10;87.10;;;;;;6241479;23;20005;-76
2023/08/16 11:44:24;;;;;;;2.45;1.77;;;13.10;87.20;;;;;;6214234;23;20004;-78
2023/08/16 11:46:51;;;;;;;3.17;2.40;;;13.10;87.10;;;;;;6215052;23;20008;-80
2023/08/16 11:49:22;;;;;;;3.67;2.50;;;13.10;87.00;;;;;;6214028;23;20400;-75
2023/08/16 11:51:50;;;;;;;3.88;2.40;;;13.00;87.10;;;;;;6189699;23;20094;-75
2023/08/16 11:54:23;;;;;;;3.47;2.63;;;13.00;87.20;;;;;;6214669;23;20020;-74
2023/08/16 11:56:54;;;;;;;3.40;1.70;;;13.00;87.20;;;;;;6241049;23;20012;-75
2023/08/16 11:59:34;;;;;;;3.70;1.50;;;13.00;87.40;;;;;;6241451;23;20138;-74
2023/08/16 12:02:08;;;;;;;3.22;1.50;;;13.00;87.40;;;;;;6215423;23;20028;-81
2023/08/16 12:04:36;;;;;;;2.47;1.50;;;12.90;87.40;;;;;;6241668;23;20043;-81
2023/08/16 12:07:10;;;;;;;3.03;1.70;;;12.80;87.70;;;;;;6212635;23;20039;-79
2023/08/16 12:09:41;;;;;;;3.20;1.45;;;12.80;87.70;;;;;;6213548;23;20074;-87
2023/08/16 12:12:08;;;;;;;;;;;12.80;87.90;;;;;;6241656;23;20027;-80
2023/08/16 12:14:36;;;;;;;3.00;1.52;;;12.70;87.90;;;;;;6241189;23;19906;-78
2023/08/16 12:17:04;;;;;;;1.75;1.35;;;12.70;88.00;;;;;;6241341;23;20092;-78
2023/08/16 12:19:31;;;;;;;2.17;1.52;;;12.70;88.20;;;;;;6239687;23;20004;-76
2023/08/16 12:21:58;;;;;;;2.13;1.48;;;12.70;88.10;;;;;;6240309;23;20505;-81
2023/08/16 12:24:26;;;;;;;2.25;1.40;;;12.60;88.20;;;;;;6241186;23;20004;-81
2023/08/16 12:26:53;;;;;;;4.32;1.40;;;12.60;88.30;;;;;;6212936;23;20004;-74
2023/08/16 12:29:20;;;;;;;1.80;1.42;;;12.50;88.30;;;;;;6190223;23;20011;-78
2023/08/16 12:31:48;;;;;;;3.33;1.63;;;12.50;88.40;;;;;;6189861;23;20011;-75
2023/08/16 12:34:16;;;;;;;11.00;3.95;;;12.50;88.40;;;;;;6214704;23;20074;-75
2023/08/16 12:36:43;;;;;;;4.57;2.40;;;12.50;88.50;;;;;;6240885;23;20004;-75
2023/08/16 12:39:10;;;;;;;8.00;3.78;;;12.40;88.60;;;;;;6240844;23;20012;-74
2023/08/16 12:41:38;;;;;;;14.20;9.02;;;12.40;88.80;;;;;;6240634;23;20350;-76
2023/08/16 12:44:05;;;;;;;6.25;3.20;;;12.40;88.90;;;;;;6215210;23;20004;-74
2023/08/16 12:46:33;;;;;;;4.28;2.78;;;12.30;88.80;;;;;;6240744;23;20026;-75
2023/08/16 12:49:00;;;;;;;5.50;2.22;;;12.30;89.10;;;;;;6241051;23;20032;-74
2023/08/16 12:51:28;;;;;;;3.53;1.70;;;12.20;89.00;;;;;;6213857;23;20016;-74
2023/08/16 12:53:55;;;;;;;4.10;2.28;;;12.20;89.30;;;;;;6214531;23;20019;-76
2023/08/16 12:56:23;;;;;;;2.85;2.10;;;12.20;89.30;;;;;;6244090;23;20004;-75
2023/08/16 12:58:50;;;;;;;3.38;1.42;;;12.20;89.40;;;;;;6242361;23;20014;-74
2023/08/16 13:01:17;;;;;;;4.43;1.65;;;12.20;89.30;;;;;;6244143;23;20327;-75
2023/08/16 13:03:44;;;;;;;4.43;1.95;;;12.20;89.30;;;;;;6244444;23;20004;-74
2023/08/16 13:06:13;;;;;;;4.65;2.00;;;12.20;89.30;;;;;;6244314;23;20062;-75
2023/08/16 13:08:40;;;;;;;2.83;1.77;;;12.30;89.30;;;;;;6242933;23;20008;-75
2023/08/16 13:11:07;;;;;;;5.60;1.90;;;12.30;89.20;;;;;;6246066;23;20324;-74
2023/08/16 13:13:35;;;;;;;5.70;2.53;;;12.30;89.10;;;;;;6246064;23;20019;-75
2023/08/16 13:16:02;;;;;;;5.78;2.30;;;12.20;89.00;;;;;;6219794;23;20004;-75
2023/08/16 13:18:29;;;;;;;5.85;2.88;;;12.20;89.00;;;;;;6245580;23;20042;-75
2023/08/16 13:20:59;;;;;;;3.45;2.42;;;12.20;89.00;;;;;;6245378;23;20019;-74
2023/08/16 13:23:28;;;;;;;2.70;2.17;;;12.20;89.00;;;;;;6246844;23;20011;-75
2023/08/16 13:25:55;;;;;;;4.35;2.33;;;12.10;89.20;;;;;;6246501;23;20007;-75
2023/08/16 13:28:22;;;;;;;4.15;2.78;;;12.10;89.30;;;;;;6219208;23;20008;-75
2023/08/16 13:30:49;;;;;;;4.47;2.78;;;12.10;89.30;;;;;;6219440;23;20434;-75
2023/08/16 13:33:18;;;;;;;7.63;2.88;;;12.00;89.40;;;;;;6194953;23;20015;-75
2023/08/16 13:35:47;;;;;;;9.43;3.08;;;12.00;89.40;;;;;;6246011;23;20000;-75
2023/08/16 13:38:15;;;;;;;4.83;2.70;;;12.00;89.50;;;;;;6219185;23;20004;-75
2023/08/16 13:40:47;;;;;;;5.70;2.70;;;12.00;89.50;;;;;;6245921;23;20078;-75
2023/08/16 13:43:14;;;;;;;5.32;3.30;;;11.90;89.60;;;;;;6195151;23;20008;-74
2023/08/16 13:45:44;;;;;;;7.78;3.40;;;11.80;89.30;;;;;;6246218;23;20001;-75
2023/08/16 13:48:12;;;;;;;5.15;3.20;;;11.70;89.40;;;;;;6246508;23;20010;-74
2023/08/16 13:50:39;;;;;;;5.05;2.90;;;11.70;89.50;;;;;;6246377;23;20111;-74
2023/08/16 13:53:07;;;;;;;5.43;3.42;;;11.70;89.50;;;;;;6218349;23;20008;-74
2023/08/16 13:55:34;;;;;;;7.28;3.25;;;11.70;89.40;;;;;;6219009;23;20043;-74
2023/08/16 13:58:01;;;;;;;10.65;3.40;;;11.70;89.50;;;;;;6245990;23;20024;-74
2023/08/16 14:00:29;;;;;;;5.35;3.28;;;11.70;89.50;;;;;;6219309;23;20024;-74
2023/08/16 14:02:56;;;;;;;9.63;3.60;;;11.70;89.40;;;;;;6219740;23;20004;-74
2023/08/16 14:05:24;;;;;;;5.95;3.13;;;11.70;89.40;;;;;;6219306;23;20030;-75
2023/08/16 14:07:52;;;;;;;8.43;2.95;;;11.60;89.50;;;;;;6245854;23;20004;-75
2023/08/16 14:10:19;;;;;;;7.30;3.20;;;11.60;89.50;;;;;;6245907;23;20000;-73
2023/08/16 14:12:46;;;;;;;6.97;3.25;;;11.60;89.50;;;;;;6245581;23;20016;-73
2023/08/16 14:15:13;;;;;;;6.38;3.10;;;11.60;89.50;;;;;;6245781;23;20000;-74
2023/08/16 14:17:40;;;;;;;6.32;3.28;;;11.50;89.50;;;;;;6244587;23;20011;-73
2023/08/16 14:20:08;;;;;;;7.68;3.15;;;11.50;89.60;;;;;;6245336;23;20015;-74
2023/08/16 14:22:35;;;;;;;4.80;3.42;;;11.50;89.60;;;;;;6245403;23;20004;-75
2023/08/16 14:25:03;;;;;;;7.70;3.50;;;11.50;89.60;;;;;;6219728;23;20008;-75
2023/08/16 14:27:30;;;;;;;6.35;3.15;;;11.40;89.80;;;;;;6245403;23;20006;-75
2023/08/16 14:29:57;;;;;;;5.13;3.10;;;11.40;89.70;;;;;;6219315;23;20003;-74
2023/08/16 14:32:25;;;;;;;5.15;3.15;;;11.40;89.80;;;;;;6194149;23;20015;-75
2023/08/16 14:34:56;;;;;;;5.60;3.25;;;11.30;89.80;;;;;;6245348;23;20050;-75
2023/08/16 14:37:23;;;;;;;5.32;2.97;;;11.30;89.90;;;;;;6243590;23;20036;-75
2023/08/16 14:39:50;;;;;;;6.45;3.33;;;11.30;90.00;;;;;;6243551;23;20008;-75
2023/08/16 14:42:19;;;;;;;4.95;3.10;;;11.30;89.90;;;;;;6243549;23;20004;-75
2023/08/16 14:44:46;;;;;;;5.78;3.35;;;11.30;90.10;;;;;;6243159;23;20070;-75
2023/08/16 14:47:14;;;;;;;7.53;3.47;;;11.30;90.10;;;;;;6243126;23;20003;-74
2023/08/16 14:49:41;;;;;;;6.78;3.55;;;11.30;90.10;;;;;;6242921;23;20030;-75
2023/08/16 14:52:09;;;;;;;6.00;3.08;;;11.20;90.10;;;;;;6243370;23;20082;-75
2023/08/16 14:54:36;;;;;;;6.78;3.45;;;11.20;90.10;;;;;;6244861;23;20088;-75
2023/08/16 14:57:03;;;;;;;6.70;3.08;;;11.20;90.10;;;;;;6245594;23;20431;-74
2023/08/16 14:59:31;;;;;;;7.68;3.35;;;11.20;90.00;;;;;;6193879;23;20016;-74
2023/08/16 15:01:58;;;;;;;5.22;3.20;;;11.20;90.00;;;;;;6244715;23;20000;-74
2023/08/16 15:04:25;;;;;;;8.68;3.58;;;11.20;90.20;;;;;;6244349;23;20000;-74
2023/08/16 15:06:52;;;;;;;7.47;3.40;;;11.10;90.30;;;;;;6245779;23;20008;-75
2023/08/16 15:09:20;;;;;;;7.25;3.28;;;11.10;90.20;;;;;;6245445;23;20478;-74
2023/08/16 15:11:47;;;;;;;6.07;3.53;;;11.10;90.20;;;;;;6245580;23;20427;-75
2023/08/16 15:14:14;;;;;;;5.88;3.38;;;11.10;90.40;;;;;;6245070;23;20008;-75
2023/08/16 15:16:41;;;;;;;6.43;3.53;;;11.00;90.30;;;;;;6245405;23;19996;-74
2023/08/16 15:19:09;;;;;;;5.40;3.45;;;11.00;90.40;;;;;;6244633;23;20419;-75
2023/08/16 15:21:38;;;;;;;11.23;3.60;;;11.00;90.40;;;;;;6245022;23;20018;-74
2023/08/16 15:24:07;;;;;;;7.10;3.75;;;11.00;90.70;;;;;;6245475;23;20067;-75
2023/08/16 15:26:34;;;;;;;7.10;4.03;;;10.90;90.70;;;;;;6244962;23;20004;-75
2023/08/16 15:29:01;;;;;;;9.20;3.60;;;10.90;90.50;;;;;;6218211;23;20036;-75
2023/08/16 15:31:28;;;;;;;6.88;3.65;;;10.90;90.60;;;;;;6218896;23;20000;-74
2023/08/16 15:33:56;;;;;;;6.72;3.25;;;10.80;90.60;;;;;;6245211;23;20016;-75
2023/08/16 15:36:23;;;;;;;8.73;4.03;;;10.80;90.70;;;;;;6245210;23;20000;-75
2023/08/16 15:38:50;;;;;;;6.78;3.55;;;10.80;90.60;;;;;;6244740;23;20118;-74
2023/08/16 15:41:17;;;;;;;7.90;3.97;;;10.80;90.60;;;;;;6245636;23;20063;-75
2023/08/16 15:43:45;;;;;;;8.02;3.50;;;10.70;90.60;;;;;;6245447;23;20000;-75
2023/08/16 15:46:13;;;;;;;5.32;3.60;;;10.80;90.70;;;;;;6244727;23;20014;-74
2023/08/16 15:48:40;;;;;;;8.38;3.80;;;10.70;90.80;;;;;;6218004;23;20012;-74
2023/08/16 15:51:08;;;;;;;7.53;4.10;;;10.70;91.00;;;;;;6244731;23;20363;-74
2023/08/16 15:53:35;;;;;;;5.78;3.60;;;10.70;91.00;;;;;;6245364;23;20008;-74
2023/08/16 15:56:03;;;;;;;6.00;3.78;;;10.70;91.20;;;;;;6245207;23;20075;-74
2023/08/16 15:58:31;;;;;;;6.53;3.75;;;10.70;91.40;;;;;;6217747;23;20034;-74
2023/08/16 16:01:01;;;;;;;5.95;3.28;;;10.70;91.30;;;;;;6218302;23;20419;-74
2023/08/16 16:03:29;;;;;;;6.88;3.85;;;10.70;91.20;;;;;;6244327;23;20000;-75
2023/08/16 16:05:56;;;;;;;8.30;4.10;;;10.80;91.10;;;;;;6218685;23;20034;-74
2023/08/16 16:08:23;;;;;;;10.27;4.28;;;10.70;91.10;;;;;;6218184;23;20070;-74
2023/08/16 16:10:50;;;;;;;6.53;3.53;;;10.80;91.20;;;;;;6218719;23;20003;-74
2023/08/16 16:13:18;;;;;;;7.05;3.38;;;10.70;90.90;;;;;;6217620;23;20012;-75
2023/08/16 16:15:45;;;;;;;7.13;3.13;;;10.70;90.90;;;;;;6193398;23;20000;-74
2023/08/16 16:18:13;;;;;;;6.55;3.75;;;10.60;90.80;;;;;;6218289;23;20000;-74
2023/08/16 16:20:40;;;;;;;5.70;3.88;;;10.60;90.90;;;;;;6244925;23;20083;-74
2023/08/16 16:23:07;;;;;;;6.68;3.63;;;10.50;90.90;;;;;;6244868;23;20004;-74
2023/08/16 16:25:35;;;;;;;6.10;3.85;;;10.50;91.00;;;;;;6217645;23;20000;-74
2023/08/16 16:28:02;;;;;;;6.93;3.67;;;10.50;91.10;;;;;;6244855;23;20015;-74
2023/08/16 16:30:29;;;;;;;7.55;3.53;;;10.40;91.10;;;;;;6218729;23;20386;-75
2023/08/16 16:32:57;;;;;;;5.97;3.95;;;10.40;91.00;;;;;;6217899;23;20035;-74
2023/08/16 16:35:28;;;;;;;5.93;3.60;;;10.40;91.10;;;;;;6193360;23;20027;-75
2023/08/16 16:37:56;;;;;;;7.20;4.47;;;10.40;90.90;;;;;;6218034;23;19996;-74
2023/08/16 16:40:23;;;;;;;6.90;4.20;;;10.30;91.10;;;;;;6244269;23;20001;-75
2023/08/16 16:42:50;;;;;;;9.02;4.20;;;10.30;91.10;;;;;;6245075;23;20004;-74
2023/08/16 16:45:17;;;;;;;5.63;4.32;;;10.40;91.40;;;;;;6217733;23;20004;-74
2023/08/16 16:47:45;;;;;;;6.97;4.10;;;10.30;91.30;;;;;;6244585;23;20027;-74
2023/08/16 16:50:12;;;;;;;7.60;4.38;;;10.30;91.40;;;;;;6217665;23;20038;-74
2023/08/16 16:52:39;;;;;;;8.82;4.80;;;10.30;91.40;;;;;;6217902;23;20015;-74
2023/08/16 16:55:07;;;;;;;6.18;4.35;;;10.30;91.40;;;;;;6244838;23;20075;-74
2023/08/16 16:57:34;;;;;;;6.35;4.53;;;10.20;91.60;;;;;;6244698;23;20086;-75
2023/08/16 17:00:05;;;;;;;14.18;4.43;;;10.20;91.50;;;;;;6244652;23;20438;-75
2023/08/16 17:02:33;;;;;;;8.32;4.72;;;10.20;91.30;;;;;;6244164;23;20048;-75
2023/08/16 17:05:00;;;;;;;11.68;4.40;;;10.20;91.50;;;;;;6244540;23;20008;-74
2023/08/16 17:07:28;;;;;;;7.70;3.85;;;10.20;91.60;;;;;;6193816;23;20400;-74
2023/08/16 17:09:55;;;;;;;8.75;4.45;;;10.20;91.50;;;;;;6193010;23;20004;-74
2023/08/16 17:12:22;;;;;;;10.18;5.13;;;10.20;91.50;;;;;;6244404;23;20209;-74
2023/08/16 17:14:49;;;;;;;8.68;4.72;;;10.20;91.50;;;;;;6243658;23;20012;-74
2023/08/16 17:17:17;;;;;;;13.02;4.90;;;10.20;91.50;;;;;;6244579;23;20004;-74
2023/08/16 17:19:44;;;;;;;10.50;4.70;;;10.20;91.60;;;;;;6244610;23;20123;-75
2023/08/16 17:22:11;;;;;;;6.80;4.50;;;10.20;91.50;;;;;;6244753;23;20391;-74
2023/08/16 17:24:38;;;;;;;8.52;4.70;;;10.20;91.50;;;;;;6244675;23;20004;-74
2023/08/16 17:27:06;;;;;;;9.50;5.25;;;10.10;91.50;;;;;;6217654;23;20079;-74
2023/08/16 17:29:33;;;;;;;9.50;5.18;;;10.10;91.60;;;;;;6244761;23;20000;-74
2023/08/16 17:32:00;;;;;;;8.25;4.68;;;10.10;91.60;;;;;;6244455;23;20000;-74
2023/08/16 17:34:27;;;;;;;10.68;5.50;;;10.10;91.40;;;;;;6243992;23;20036;-74
2023/08/16 17:36:54;;;;;;;12.02;5.38;;;10.10;91.50;;;;;;6244271;23;20420;-74
2023/08/16 17:39:22;;;;;;;10.32;4.80;;;10.10;91.50;;;;;;6244701;23;20007;-75
2023/08/16 17:41:49;;;;;;;8.48;4.97;;;10.10;91.50;;;;;;6244012;23;20022;-74
2023/08/16 17:44:16;;;;;;;8.23;5.38;;;10.10;91.40;;;;;;6243770;23;20071;-74
2023/08/16 17:46:43;;;;;;;12.60;5.05;;;10.10;91.50;;;;;;6244828;23;20004;-74
2023/08/16 17:49:11;;;;;;;13.13;5.30;;;10.10;91.40;;;;;;6244234;23;20308;-74
2023/08/16 17:51:39;;;;;;;11.95;5.10;;;10.10;91.30;;;;;;6243921;23;20386;-74
2023/08/16 17:54:07;;;;;;;10.25;5.18;;;10.00;91.20;;;;;;6217984;23;20008;-74
2023/08/16 17:56:34;;;;;;;11.82;5.63;;;10.00;91.40;;;;;;6244864;23;20464;-75
2023/08/16 17:59:02;;;;;;;9.43;5.70;;;10.00;91.40;;;;;;6245565;23;20489;-74
2023/08/16 18:01:29;;;;;;;10.90;5.40;;;10.00;91.50;;;;;;6246057;23;20015;-74
2023/08/16 18:03:57;;;;;;;12.38;5.72;;;10.00;91.50;;;;;;6246177;23;19996;-74
2023/08/16 18:06:24;;;;;;;11.52;5.93;;;10.00;91.50;;;;;;6246725;23;20342;-75
2023/08/16 18:08:51;;;;;;;12.32;5.68;;;9.90;91.50;;;;;;6245207;23;20000;-74
2023/08/16 18:11:18;;;;;;;8.57;5.22;;;9.90;91.60;;;;;;6246264;23;20730;-74
2023/08/16 18:13:46;;;;;;;12.23;5.10;;;9.90;91.50;;;;;;6245941;23;20331;-74
2023/08/16 18:16:14;;;;;;;12.18;5.50;;;9.90;91.50;;;;;;6246242;23;20315;-74
2023/08/16 18:18:41;;;;;;;10.30;5.45;;;9.90;91.40;;;;;;6245859;23;20001;-74
2023/08/16 18:21:08;;;;;;;11.75;5.90;;;9.80;91.40;;;;;;6193875;23;20016;-74
2023/08/16 18:23:35;;;;;;;7.93;5.80;;;9.80;91.40;;;;;;6245846;23;20004;-74
2023/08/16 18:26:02;;;;;;;10.02;5.55;;;9.70;91.40;;;;;;6245131;23;20007;-74
2023/08/16 18:28:30;;;;;;;11.35;5.57;;;9.70;91.40;;;;;;6246411;23;20069;-74
2023/08/16 18:30:57;;;;;;;11.43;5.47;;;9.70;91.50;;;;;;6245598;23;20000;-74
2023/08/16 18:33:24;;;;;;;7.93;4.97;;;9.80;91.50;;;;;;6245659;23;20032;-74
2023/08/16 18:35:52;;;;;;;7.85;5.47;;;9.80;91.50;;;;;;6246176;23;20397;-73
2023/08/16 18:38:19;;;;;;;9.15;5.65;;;9.70;91.40;;;;;;6244463;23;20322;-75
2023/08/16 18:40:46;;;;;;;8.40;5.47;;;9.70;91.50;;;;;;6244424;23;20014;-75
2023/08/16 18:43:14;;;;;;;10.50;5.57;;;9.60;91.50;;;;;;6244399;23;20023;-75
2023/08/16 18:45:47;;;;;;;8.57;5.57;;;9.60;91.30;;;;;;6194728;23;20054;-75
2023/08/16 21:24:20;;;;;;;11.40;8.20;;;9.20;92.10;;;;;;6238901;22;20031;-75
2023/08/16 21:26:48;;;;;;;13.13;9.15;;;9.20;92.10;;;;;;6218160;23;20391;-75
2023/08/16 21:29:15;;;;;;;15.05;9.52;;;9.30;92.10;;;;;;6217675;23;20039;-75
2023/08/16 21:31:55;;;;;;;15.30;8.88;;;9.30;92.00;;;;;;6217821;23;20075;-76
2023/08/16 21:34:22;;;;;;;15.77;9.02;;;9.30;92.00;;;;;;6195664;23;20019;-75
2023/08/16 21:36:49;;;;;;;17.48;9.18;;;9.40;92.10;;;;;;6246091;23;20430;-76
2023/08/16 21:39:16;;;;;;;13.85;8.80;;;9.50;92.10;;;;;;6245109;23;20087;-76
2023/08/16 21:41:44;;;;;;;16.75;9.38;;;9.50;92.00;;;;;;6218405;23;20043;-76
2023/08/16 21:44:11;;;;;;;12.30;8.35;;;9.50;92.00;;;;;;6246021;23;19996;-76